Time;durP1;ratioP1;P1;durP2;ratioP2;P2;SDS_P1;SDS_P2;PMS_P1;PMS_P2;Temp;Humidity;BMP_temperature;BMP_pressure;BME280_temperature;BME280_humidity;BME280_pressure;Samples;Min_cycle;Max_cycle;Signal;HPM_P1;HPM_P2
2021/12/11 00:00:44;;;;;;;3.05;0.98;;;;;;;;;;5135676;27;20027;-74
2021/12/11 00:03:16;;;;;;;6.93;1.63;;;;;;;;;;5134249;27;20039;-74
2021/12/11 00:05:45;;;;;;;5.53;1.25;;;;;;;;;;5135803;27;20098;-74
2021/12/11 00:08:16;;;;;;;3.33;0.85;;;;;;;;;;5134165;27;20031;-75
2021/12/11 00:10:45;;;;;;;4.85;1.23;;;;;;;;;;5134153;27;20506;-74
2021/12/11 00:13:15;;;;;;;4.68;1.10;;;;;;;;;;5135485;27;20019;-74
2021/12/11 00:15:42;;;;;;;;;;;;;;;;;;5135905;27;20020;-74
2021/12/11 00:18:12;;;;;;;6.05;1.27;;;;;;;;;;5135654;27;19960;-74
2021/12/11 00:20:41;;;;;;;3.80;1.47;;;;;;;;;;5133946;27;20169;-74
2021/12/11 00:23:08;;;;;;;4.30;1.08;;;;;;;;;;5134331;27;20051;-74
2021/12/11 00:25:45;;;;;;;3.33;0.90;;;;;;;;;;5135335;27;20030;-74
2021/12/11 00:28:13;;;;;;;4.70;0.90;;;;;;;;;;5133891;27;20023;-74
2021/12/11 00:30:42;;;;;;;5.82;0.98;;;;;;;;;;5134301;27;20022;-74
2021/12/11 00:33:11;;;;;;;5.05;0.95;;;;;;;;;;5135783;27;20111;-74
2021/12/11 00:35:38;;;;;;;4.18;0.80;;;;;;;;;;5135936;27;20019;-74
2021/12/11 00:38:07;;;;;;;4.85;0.80;;;;;;;;;;5134376;27;20019;-73
2021/12/11 00:40:35;;;;;;;4.22;1.23;;;;;;;;;;5133548;27;20030;-72
2021/12/11 00:43:04;;;;;;;6.88;1.73;;;;;;;;;;5134975;27;20467;-74
2021/12/11 00:45:36;;;;;;;5.87;1.30;;;;;;;;;;5134623;27;20490;-74
2021/12/11 00:48:08;;;;;;;4.35;0.93;;;;;;;;;;5134482;27;20034;-73
2021/12/11 00:50:38;;;;;;;4.45;1.08;;;;;;;;;;5134415;27;20054;-74
2021/12/11 00:53:14;;;;;;;3.83;1.00;;;;;;;;;;5134508;27;20068;-73
2021/12/11 00:55:51;;;;;;;2.42;0.90;;;;;;;;;;5134565;27;20019;-74
2021/12/11 00:58:28;;;;;;;2.25;0.80;;;;;;;;;;5134403;27;20136;-73
2021/12/11 01:00:57;;;;;;;4.97;0.80;;;;;;;;;;5134115;27;20445;-74
2021/12/11 01:03:27;;;;;;;6.03;1.10;;;;;;;;;;5134196;27;20043;-74
2021/12/11 01:05:56;;;;;;;6.05;1.10;;;;;;;;;;5132991;27;20019;-73
2021/12/11 01:08:31;;;;;;;5.53;1.30;;;;;;;;;;5134019;27;20032;-73
2021/12/11 01:11:02;;;;;;;3.05;0.90;;;;;;;;;;5134344;27;20046;-74
2021/12/11 01:13:30;;;;;;;5.55;1.10;;;;;;;;;;5132827;27;20433;-74
2021/12/11 01:16:05;;;;;;;4.57;0.82;;;;;;;;;;5134054;27;20015;-73
2021/12/11 01:18:37;;;;;;;2.47;0.70;;;;;;;;;;5134117;27;20019;-74
2021/12/11 01:24:11;;;;;;;3.45;0.90;;;;;;;;;;5134306;27;20517;-73
2021/12/11 01:26:41;;;;;;;4.70;1.05;;;;;;;;;;5134175;27;20050;-74
2021/12/11 01:29:09;;;;;;;4.85;0.90;;;;;;;;;;5134523;27;20037;-74
2021/12/11 01:31:37;;;;;;;3.17;0.90;;;;;;;;;;5132440;27;20019;-73
2021/12/11 01:34:05;;;;;;;4.82;1.05;;;;;;;;;;5134140;27;20480;-74
2021/12/11 01:36:32;;;;;;;4.35;0.98;;;;;;;;;;5133943;27;20102;-73
2021/12/11 01:39:01;;;;;;;4.00;0.70;;;;;;;;;;5133981;27;20027;-73
2021/12/11 01:41:29;;;;;;;3.83;1.10;;;;;;;;;;5132474;27;20030;-73
2021/12/11 01:43:58;;;;;;;6.32;1.02;;;;;;;;;;5132552;27;20019;-73
2021/12/11 01:46:26;;;;;;;2.58;0.60;;;;;;;;;;5132697;27;20019;-74
2021/12/11 01:48:58;;;;;;;3.42;0.80;;;;;;;;;;5134187;27;20023;-74
2021/12/11 01:51:28;;;;;;;5.57;1.10;;;;;;;;;;5133986;27;20095;-73
2021/12/11 01:54:05;;;;;;;4.03;1.00;;;;;;;;;;5134708;27;20019;-74
2021/12/11 01:56:34;;;;;;;3.85;0.73;;;;;;;;;;5134166;27;20039;-74
2021/12/11 01:59:21;;;;;;;3.15;0.70;;;;;;;;;;5133808;28;20472;-74
2021/12/11 02:02:04;;;;;;;5.63;1.15;;;;;;;;;;5132177;28;20027;-74
2021/12/11 02:04:32;;;;;;;3.15;0.70;;;;;;;;;;5133804;28;20377;-73
2021/12/11 02:07:06;;;;;;;2.90;0.77;;;;;;;;;;5132439;28;20063;-74
2021/12/11 02:09:35;;;;;;;3.80;0.68;;;;;;;;;;5133666;28;20015;-73
2021/12/11 02:12:06;;;;;;;4.03;0.70;;;;;;;;;;5132424;28;20429;-73
2021/12/11 02:14:39;;;;;;;6.65;0.90;;;;;;;;;;5133741;28;20065;-74
2021/12/11 02:17:06;;;;;;;2.42;1.05;;;;;;;;;;5133599;28;20102;-73
2021/12/11 02:19:37;;;;;;;4.18;0.90;;;;;;;;;;5135098;27;20039;-73
2021/12/11 02:22:04;;;;;;;4.07;0.80;;;;;;;;;;5137577;27;20102;-73
2021/12/11 02:24:42;;;;;;;2.28;0.60;;;;;;;;;;5136023;27;20079;-73
2021/12/11 02:27:12;;;;;;;2.35;0.70;;;;;;;;;;5137399;27;20042;-73
2021/12/11 02:29:44;;;;;;;2.88;0.60;;;;;;;;;;5137690;27;20042;-75
2021/12/11 02:32:15;;;;;;;2.15;0.60;;;;;;;;;;5135844;27;20075;-75
2021/12/11 02:34:54;;;;;;;2.88;0.85;;;;;;;;;;5137577;27;20030;-74
2021/12/11 02:37:47;;;;;;;2.10;0.90;;;;;;;;;;5135967;27;20374;-73
2021/12/11 02:40:18;;;;;;;2.50;0.80;;;;;;;;;;5135222;27;20046;-73
2021/12/11 02:42:55;;;;;;;3.38;0.80;;;;;;;;;;5136152;27;20046;-72
2021/12/11 02:45:36;;;;;;;3.42;1.00;;;;;;;;;;5137348;27;20045;-73
2021/12/11 02:48:10;;;;;;;2.10;0.60;;;;;;;;;;5137207;27;20104;-73
2021/12/11 02:50:42;;;;;;;1.85;0.50;;;;;;;;;;5137373;27;20096;-73
2021/12/11 02:53:14;;;;;;;2.45;0.68;;;;;;;;;;5137495;27;20083;-72
2021/12/11 02:55:48;;;;;;;2.55;0.50;;;;;;;;;;5137070;27;20047;-73
2021/12/11 02:58:18;;;;;;;5.10;0.95;;;;;;;;;;5136776;27;20387;-73
2021/12/11 03:00:50;;;;;;;4.65;1.02;;;;;;;;;;5137407;27;20424;-73
2021/12/11 03:03:18;;;;;;;3.55;1.10;;;;;;;;;;5136592;27;20142;-73
2021/12/11 03:05:55;;;;;;;3.92;1.10;;;;;;;;;;5134845;27;20027;-73
2021/12/11 03:08:22;;;;;;;6.80;1.75;;;;;;;;;;5135354;27;20447;-73
2021/12/11 03:10:52;;;;;;;4.47;1.40;;;;;;;;;;5135170;27;20027;-74
2021/12/11 03:13:20;;;;;;;3.92;0.73;;;;;;;;;;5136585;27;20023;-74
2021/12/11 03:15:47;;;;;;;4.93;0.98;;;;;;;;;;5135060;27;20027;-73
2021/12/11 03:18:14;;;;;;;4.05;1.10;;;;;;;;;;5135758;27;20414;-73
2021/12/11 03:20:44;;;;;;;3.88;1.15;;;;;;;;;;5136524;27;20023;-74
2021/12/11 03:23:11;;;;;;;2.75;0.82;;;;;;;;;;5137198;27;20019;-73
2021/12/11 03:25:39;;;;;;;1.60;0.50;;;;;;;;;;5136789;27;20023;-73
2021/12/11 03:28:07;;;;;;;2.55;0.40;;;;;;;;;;5135015;27;20023;-73
2021/12/11 03:30:45;;;;;;;1.88;0.50;;;;;;;;;;5136447;27;20095;-73
2021/12/11 03:33:13;;;;;;;3.97;0.75;;;;;;;;;;5135286;27;20026;-72
2021/12/11 03:35:41;;;;;;;2.38;0.38;;;;;;;;;;5135075;27;20027;-73
2021/12/11 03:38:09;;;;;;;4.15;0.65;;;;;;;;;;5136717;27;20512;-74
2021/12/11 03:40:36;;;;;;;2.97;0.70;;;;;;;;;;5136595;27;20094;-74
2021/12/11 03:43:06;;;;;;;2.05;0.70;;;;;;;;;;5136469;27;20548;-72
2021/12/11 03:45:34;;;;;;;4.30;1.00;;;;;;;;;;5135312;27;20495;-74
2021/12/11 03:48:11;;;;;;;3.40;0.60;;;;;;;;;;5136973;27;20332;-75
2021/12/11 03:50:39;;;;;;;2.20;0.60;;;;;;;;;;5135602;27;20487;-74
2021/12/11 03:53:07;;;;;;;3.40;0.85;;;;;;;;;;5135165;27;20475;-74
2021/12/11 03:55:37;;;;;;;3.55;1.02;;;;;;;;;;5136117;27;20023;-75
2021/12/11 03:58:04;;;;;;;;;;;;;;;;;;5137709;27;20038;-76
2021/12/11 04:00:38;;;;;;;3.92;0.88;;;25.20;99.90;;;;;;5135503;27;19904;-74
2021/12/11 04:03:07;;;;;;;4.85;0.82;;;25.10;99.90;;;;;;5134986;27;20121;-74
2021/12/11 04:05:38;;;;;;;3.00;0.98;;;24.70;99.90;;;;;;5136781;27;20015;-75
2021/12/11 04:08:09;;;;;;;2.88;0.70;;;24.70;99.90;;;;;;5136579;27;20030;-74
2021/12/11 04:10:37;;;;;;;4.20;0.70;;;24.20;99.90;;;;;;5136375;27;20098;-75
2021/12/11 04:13:07;;;;;;;2.75;0.65;;;24.20;99.90;;;;;;5136267;27;20022;-74
2021/12/11 04:15:37;;;;;;;2.05;0.70;;;24.10;99.90;;;;;;5136324;27;20015;-74
2021/12/11 04:18:05;;;;;;;3.67;0.65;;;24.60;99.90;;;;;;5134978;27;20031;-75
2021/12/11 04:20:39;;;;;;;2.63;0.70;;;24.50;99.90;;;;;;5136498;27;20054;-78
2021/12/11 04:23:11;;;;;;;1.92;0.40;;;24.40;99.90;;;;;;5135345;27;20023;-74
2021/12/11 04:25:41;;;;;;;3.08;0.70;;;24.30;99.90;;;;;;5135008;27;20023;-73
2021/12/11 04:28:10;;;;;;;3.97;0.70;;;24.40;99.90;;;;;;5135819;27;20552;-73
2021/12/11 04:30:40;;;;;;;4.50;0.77;;;24.20;99.90;;;;;;5135848;27;20038;-73
2021/12/11 04:33:07;;;;;;;4.32;0.68;;;24.40;99.90;;;;;;5134128;27;20016;-71
2021/12/11 04:35:34;;;;;;;7.07;0.85;;;24.40;99.90;;;;;;5135478;27;20408;-74
2021/12/11 04:38:07;;;;;;;5.35;1.00;;;24.90;99.90;;;;;;5135290;27;20023;-74
2021/12/11 04:40:41;;;;;;;4.10;0.60;;;25.30;99.90;;;;;;5135572;27;20023;-74
2021/12/11 04:43:18;;;;;;;4.28;0.68;;;25.00;99.90;;;;;;5134700;27;20360;-74
2021/12/11 04:45:50;;;;;;;3.60;0.90;;;24.90;99.90;;;;;;5135677;27;20050;-74
2021/12/11 04:49:03;;;;;;;5.65;0.75;;;24.80;99.90;;;;;;5135250;27;20549;-73
2021/12/11 04:51:39;;;;;;;3.30;0.70;;;24.80;99.90;;;;;;5134889;27;20113;-73
2021/12/11 04:54:54;;;;;;;1.83;0.45;;;24.90;99.90;;;;;;5134022;27;20472;-73
2021/12/11 05:10:22;;;;;;;1.98;0.47;;;24.20;99.90;;;;;;5134701;27;20036;-73
2021/12/11 05:12:55;;;;;;;2.83;0.60;;;24.70;99.90;;;;;;5133328;27;20031;-74
2021/12/11 05:15:27;;;;;;;3.90;0.77;;;24.70;99.90;;;;;;5134890;27;20019;-75
2021/12/11 05:17:55;;;;;;;5.47;0.80;;;24.40;99.90;;;;;;5133837;27;20023;-75
2021/12/11 05:20:26;;;;;;;3.10;0.73;;;24.20;99.90;;;;;;5135548;27;20068;-74
2021/12/11 05:22:53;;;;;;;;;;;24.40;99.90;;;;;;5135912;27;20026;-76
2021/12/11 05:25:20;;;;;;;5.93;1.00;;;24.60;99.90;;;;;;5135370;27;19910;-76
2021/12/11 05:27:48;;;;;;;12.05;2.08;;;24.90;99.90;;;;;;5135774;27;20031;-76
2021/12/11 05:30:21;;;;;;;4.88;1.05;;;24.90;99.90;;;;;;5135730;27;20023;-74
2021/12/11 05:32:50;;;;;;;5.88;1.38;;;25.10;99.90;;;;;;5134775;27;20428;-72
2021/12/11 05:35:18;;;;;;;6.90;1.73;;;25.10;99.90;;;;;;5134935;27;20390;-73
2021/12/11 05:37:46;;;;;;;3.67;0.95;;;24.80;99.90;;;;;;5135047;27;20026;-72
2021/12/11 05:40:19;;;;;;;3.78;0.57;;;24.30;99.90;;;;;;5133842;27;20022;-73
2021/12/11 05:42:47;;;;;;;3.80;0.82;;;24.50;99.90;;;;;;5133548;27;20102;-73
2021/12/11 05:45:14;;;;;;;6.07;1.13;;;24.10;99.90;;;;;;5133137;27;20019;-73
2021/12/11 05:47:42;;;;;;;7.22;1.50;;;24.40;99.90;;;;;;5134382;27;20562;-75
2021/12/11 05:50:14;;;;;;;3.42;0.88;;;24.80;99.90;;;;;;5133821;27;20502;-74
2021/12/11 05:52:44;;;;;;;5.20;1.23;;;24.70;99.90;;;;;;5133667;27;20110;-75
2021/12/11 05:55:15;;;;;;;4.13;0.93;;;;;;;;;;5135216;27;20068;-75
2021/12/11 05:57:50;;;;;;;3.67;0.93;;;;;;;;;;5134840;27;20031;-73
2021/12/11 06:00:18;;;;;;;3.60;1.08;;;;;;;;;;5133816;28;20024;-74
2021/12/11 06:02:45;;;;;;;5.68;1.45;;;;;;;;;;5133523;28;20047;-75
2021/12/11 06:05:12;;;;;;;4.80;1.75;;;;;;;;;;5134766;28;20027;-75
2021/12/11 06:07:43;;;;;;;3.00;0.73;;;;;;;;;;5133418;28;20042;-74
2021/12/11 06:10:10;;;;;;;;;;;;;;;;;;5134185;28;20058;-76
2021/12/11 06:12:37;;;;;;;4.28;0.90;;;;;;;;;;5134573;28;20028;-75
2021/12/11 06:15:05;;;;;;;5.28;1.63;;;;;;;;;;5134582;28;20019;-75
2021/12/11 06:17:33;;;;;;;6.78;1.50;;;;;;;;;;5134496;28;20392;-75
2021/12/11 06:20:02;;;;;;;5.65;1.42;;;;;;;;;;5134254;28;20063;-74
2021/12/11 06:22:31;;;;;;;5.05;1.35;;;;;;;;;;5134877;28;20102;-76
2021/12/11 06:25:00;;;;;;;7.32;1.67;;;;;;;;;;5134969;28;20039;-76
2021/12/11 06:27:27;;;;;;;3.22;0.93;;;;;;;;;;5135339;28;20033;-77
2021/12/11 06:29:55;;;;;;;4.93;1.17;;;;;;;;;;5135414;28;20026;-76
2021/12/11 06:32:23;;;;;;;3.17;0.95;;;;;;;;;;5134809;28;20044;-76
2021/12/11 06:34:54;;;;;;;4.30;0.88;;;;;;;;;;5134741;28;20019;-75
2021/12/11 06:37:21;;;;;;;2.50;0.90;;;;;;;;;;5133079;28;20139;-75
2021/12/11 06:39:50;;;;;;;4.97;0.88;;;;;;;;;;5134483;28;20486;-74
2021/12/11 06:42:19;;;;;;;6.80;1.15;;;;;;;;;;5134349;28;20034;-73
2021/12/11 06:44:47;;;;;;;5.47;1.40;;;;;;;;;;5132752;28;20044;-73
2021/12/11 06:47:15;;;;;;;4.65;1.10;;;;;;;;;;5132804;28;20027;-74
2021/12/11 06:49:42;;;;;;;6.32;1.35;;;;;;;;;;5133887;28;20019;-75
2021/12/11 06:52:12;;;;;;;6.57;1.35;;;;;;;;;;5134276;28;20019;-72
2021/12/11 06:54:40;;;;;;;6.70;1.08;;;;;;;;;;5133915;28;20031;-73
2021/12/11 06:57:09;;;;;;;4.57;1.20;;;;;;;;;;5134300;28;20395;-75
2021/12/11 06:59:37;;;;;;;4.93;1.10;;;;;;;;;;5132889;28;20076;-75
2021/12/11 07:02:04;;;;;;;5.18;1.35;;;;;;;;;;5133959;28;20031;-73
2021/12/11 07:04:31;;;;;;;6.60;1.58;;;;;;;;;;5131965;27;20063;-74
2021/12/11 07:06:59;;;;;;;6.55;1.55;;;;;;;;;;5137977;27;20080;-76
2021/12/11 07:09:27;;;;;;;5.50;1.42;;;;;;;;;;5136539;27;20472;-74
2021/12/11 07:11:55;;;;;;;3.85;0.90;;;;;;;;;;5137235;27;20026;-75
2021/12/11 07:14:24;;;;;;;6.60;1.30;;;;;;;;;;5137760;27;20023;-75
2021/12/11 07:16:52;;;;;;;6.47;1.60;;;;;;;;;;5136569;27;20072;-74
2021/12/11 07:19:19;;;;;;;8.10;1.48;;;;;;;;;;5138093;27;20087;-76
2021/12/11 07:21:50;;;;;;;7.32;1.50;;;;;;;;;;5137873;27;20020;-75
2021/12/11 07:24:19;;;;;;;5.53;1.23;;;;;;;;;;5136397;27;20027;-75
2021/12/11 07:26:47;;;;;;;4.40;1.10;;;;;;;;;;5136031;27;20015;-73
2021/12/11 07:29:15;;;;;;;9.18;1.40;;;;;;;;;;5135926;27;20536;-75
2021/12/11 07:31:44;;;;;;;10.02;2.15;;;;;;;;;;5136085;27;20475;-75
2021/12/11 07:34:12;;;;;;;8.18;1.98;;;;;;;;;;5137531;27;20023;-74
2021/12/11 07:36:39;;;;;;;8.70;1.70;;;;;;;;;;5137584;27;20498;-75
2021/12/11 07:39:08;;;;;;;6.80;1.48;;;;;;;;;;5137957;27;20467;-75
2021/12/11 07:41:35;;;;;;;8.02;1.88;;;;;;;;;;5136209;27;20019;-74
2021/12/11 07:44:02;;;;;;;6.85;2.00;;;;;;;;;;5137257;27;20084;-74
2021/12/11 07:46:31;;;;;;;6.82;1.13;;;;;;;;;;5137229;27;20015;-74
2021/12/11 07:48:58;;;;;;;6.85;1.67;;;;;;;;;;5136900;27;20390;-75
2021/12/11 07:51:27;;;;;;;6.47;1.50;;;;;;;;;;5137025;27;20090;-75
2021/12/11 07:53:54;;;;;;;7.38;2.17;;;;;;;;;;5136539;27;20094;-75
2021/12/11 07:56:22;;;;;;;6.18;1.40;;;;;;;;;;5135590;27;20019;-74
2021/12/11 07:58:50;;;;;;;8.05;2.20;;;;;;;;;;5135858;27;20038;-74
2021/12/11 08:01:18;;;;;;;8.90;1.42;;;;;;;;;;5135600;27;20449;-74
2021/12/11 08:03:45;;;;;;;7.10;1.45;;;;;;;;;;5136632;27;20091;-74
2021/12/11 08:06:13;;;;;;;6.32;1.30;;;;;;;;;;5136591;27;20019;-74
2021/12/11 08:08:41;;;;;;;7.50;1.90;;;;;;;;;;5136747;27;20110;-75
2021/12/11 08:11:13;;;;;;;7.55;1.42;;;;;;;;;;5136591;27;20019;-75
2021/12/11 08:13:43;;;;;;;4.85;1.23;;;;;;;;;;5136797;27;20035;-74
2021/12/11 08:16:11;;;;;;;7.25;1.90;;;;;;;;;;5136126;27;20041;-74
2021/12/11 08:18:39;;;;;;;7.32;1.55;;;;;;;;;;5134587;27;20122;-76
2021/12/11 08:21:06;;;;;;;9.00;2.10;;;;;;;;;;5136469;27;20024;-75
2021/12/11 08:23:40;;;;;;;8.20;1.38;;;;;;;;;;5134583;27;20507;-74
2021/12/11 08:26:07;;;;;;;10.35;1.50;;;;;;;;;;5134564;27;20472;-75
2021/12/11 08:28:34;;;;;;;6.68;1.05;;;;;;;;;;5135917;27;20080;-74
2021/12/11 08:31:01;;;;;;;8.48;1.60;;;;;;;;;;5136212;27;20050;-74
2021/12/11 08:33:29;;;;;;;8.60;1.35;;;;;;;;;;5136280;27;20023;-75
2021/12/11 08:35:57;;;;;;;11.68;1.63;;;;;;;;;;5136081;27;20023;-74
2021/12/11 08:38:24;;;;;;;10.48;1.48;;;;;;;;;;5134863;27;20429;-74
2021/12/11 08:40:55;;;;;;;7.20;2.03;;;;;;;;;;5134492;27;20027;-74
2021/12/11 08:43:23;;;;;;;9.57;1.98;;;;;;;;;;5135872;27;20031;-75
2021/12/11 08:45:57;;;;;;;7.75;2.05;;;;;;;;;;5135483;27;20050;-74
2021/12/11 08:48:26;;;;;;;8.00;2.25;;;;;;;;;;5134051;27;20035;-75
2021/12/11 08:50:55;;;;;;;6.60;1.50;;;;;;;;;;5136238;27;20424;-75
2021/12/11 08:53:22;;;;;;;5.47;1.60;;;;;;;;;;5136253;27;20042;-75
2021/12/11 08:55:54;;;;;;;8.38;1.92;;;;;;;;;;5135992;27;20486;-74
2021/12/11 08:58:22;;;;;;;8.65;1.90;;;;;;;;;;5135654;27;20015;-74
2021/12/11 09:00:58;;;;;;;13.93;2.35;;;;;;;;;;5134300;27;20110;-74
2021/12/11 09:03:33;;;;;;;7.43;1.48;;;;;;;;;;5135345;27;20051;-74
2021/12/11 09:06:03;;;;;;;10.50;2.92;;;;;;;;;;5134730;27;20072;-74
2021/12/11 09:08:37;;;;;;;9.27;2.33;;;;;;;;;;5134286;27;20023;-74
2021/12/11 09:11:09;;;;;;;7.93;1.95;;;;;;;;;;5134600;27;20019;-73
2021/12/11 09:13:39;;;;;;;10.55;2.38;;;;;;;;;;5135349;27;20361;-73
2021/12/11 09:16:25;;;;;;;5.45;1.52;;;;;;;;;;5135845;27;20383;-74
2021/12/11 09:18:55;;;;;;;5.90;1.50;;;;;;;;;;5136087;27;20080;-74
2021/12/11 09:21:26;;;;;;;8.40;2.03;;;;;;;;;;5136111;27;20092;-74
2021/12/11 09:24:03;;;;;;;7.65;1.50;;;;;;;;;;5135593;27;20027;-73
2021/12/11 09:26:50;;;;;;;9.07;1.73;;;;;;;;;;5135831;27;20020;-74
2021/12/11 09:29:22;;;;;;;11.02;2.17;;;;;;;;;;5134009;27;20031;-75
2021/12/11 09:31:56;;;;;;;8.88;2.20;;;;;;;;;;5135838;27;20031;-74
2021/12/11 09:34:27;;;;;;;8.18;2.28;;;;;;;;;;5135707;27;20023;-74
2021/12/11 09:36:57;;;;;;;6.93;2.00;;;;;;;;;;5135972;27;20052;-74
2021/12/11 09:39:32;;;;;;;7.72;1.95;;;;;;;;;;5133957;27;20035;-74
2021/12/11 09:41:59;;;;;;;11.88;2.85;;;;;;;;;;5135199;27;20030;-75
2021/12/11 09:44:29;;;;;;;7.90;2.05;;;;;;;;;;5135154;27;20024;-76
2021/12/11 09:47:00;;;;;;;6.85;1.52;;;;;;;;;;5134601;27;20506;-74
2021/12/11 09:49:31;;;;;;;10.20;1.88;;;;;;;;;;5134711;27;20019;-74
2021/12/11 09:52:04;;;;;;;9.80;1.88;;;;;;;;;;5134961;27;20048;-74
2021/12/11 09:54:34;;;;;;;6.82;1.70;;;;;;;;;;5134474;27;20015;-76
2021/12/11 09:57:09;;;;;;;8.18;1.90;;;;;;;;;;5135152;27;20015;-76
2021/12/11 09:59:38;;;;;;;9.05;2.13;;;;;;;;;;5135330;27;20042;-75
2021/12/11 10:02:09;;;;;;;8.38;1.95;;;;;;;;;;5133748;28;20019;-75
2021/12/11 10:04:39;;;;;;;10.95;2.72;;;;;;;;;;5133457;28;20035;-74
2021/12/11 10:09:44;;;;;;;11.05;2.65;;;;;;;;;;5135098;28;20110;-74
2021/12/11 10:12:16;;;;;;;14.73;3.13;;;;;;;;;;5134943;28;20386;-74
2021/12/11 10:14:47;;;;;;;9.23;1.83;;;;;;;;;;5134533;28;20042;-74
2021/12/11 10:17:18;;;;;;;9.43;2.08;;;;;;;;;;5135046;28;20031;-74
2021/12/11 10:19:44;;;;;;;;;;;;;;;;;;5135362;28;20031;-74
2021/12/11 10:22:37;;;;;;;6.95;2.00;;;;;;;;;;5134741;28;19911;-75
2021/12/11 10:25:06;;;;;;;11.00;2.40;;;;;;;;;;5132859;27;20062;-75
2021/12/11 10:27:34;;;;;;;10.98;2.83;;;;;;;;;;5134367;28;20023;-74
2021/12/11 10:30:02;;;;;;;7.45;1.90;;;;;;;;;;5134512;28;20019;-74
2021/12/11 10:32:31;;;;;;;13.52;2.38;;;;;;;;;;5132841;28;20035;-74
2021/12/11 10:35:05;;;;;;;11.57;2.70;;;;;;;;;;5134460;28;20019;-74
2021/12/11 10:37:36;;;;;;;9.82;2.45;;;;;;;;;;5134716;28;20520;-76
2021/12/11 10:40:26;;;;;;;11.50;2.55;;;;;;;;;;5133812;27;20027;-75
2021/12/11 10:43:13;;;;;;;11.07;2.90;;;;;;;;;;5129345;27;20502;-75
2021/12/11 10:45:41;;;;;;;10.90;2.72;;;;;;;;;;5138341;27;20051;-75
2021/12/11 10:48:11;;;;;;;12.70;2.13;;;;;;;;;;5138209;27;20071;-75
2021/12/11 10:50:44;;;;;;;7.13;1.85;;;;;;;;;;5138363;27;20098;-74
2021/12/11 10:53:15;;;;;;;9.95;1.88;;;;;;;;;;5136925;27;20023;-75
2021/12/11 10:55:43;;;;;;;9.32;2.40;;;;;;;;;;5137884;27;20113;-75
2021/12/11 10:58:15;;;;;;;8.18;1.65;;;;;;;;;;5136508;27;20023;-74
2021/12/11 11:01:04;;;;;;;4.30;1.13;;;;;;;;;;5137851;27;20106;-74
2021/12/11 11:03:33;;;;;;;9.27;1.83;;;;;;;;;;5137639;27;20171;-74
2021/12/11 11:06:00;;;;;;;10.00;2.38;;;;;;;;;;5138059;27;20035;-75
2021/12/11 11:08:29;;;;;;;7.60;1.70;;;;;;;;;;5137929;27;20410;-74
2021/12/11 11:10:58;;;;;;;10.65;1.98;;;;;;;;;;5136707;27;20543;-74
2021/12/11 11:13:25;;;;;;;6.10;1.10;;;;;;;;;;5136225;27;20016;-73
2021/12/11 11:15:54;;;;;;;6.60;1.55;;;;;;;;;;5137595;27;20368;-74
2021/12/11 11:18:22;;;;;;;12.38;2.72;;;;;;;;;;5137734;27;20019;-74
2021/12/11 11:20:52;;;;;;;7.32;1.50;;;;;;;;;;5137924;27;20031;-74
2021/12/11 11:23:21;;;;;;;7.97;1.73;;;;;;;;;;5137620;27;20027;-74
2021/12/11 11:25:50;;;;;;;9.90;1.77;;;;;;;;;;5136153;27;20079;-74
2021/12/11 11:28:20;;;;;;;8.95;1.65;;;;;;;;;;5137760;27;20499;-75
2021/12/11 11:30:52;;;;;;;6.10;1.58;;;;;;;;;;5137407;27;20011;-74
2021/12/11 11:33:20;;;;;;;7.75;1.70;;;;;;;;;;5137063;27;20495;-75
2021/12/11 11:35:48;;;;;;;7.57;1.75;;;;;;;;;;5137525;27;20452;-75
2021/12/11 11:38:17;;;;;;;6.78;1.67;;;;;;;;;;5137307;27;20107;-74
2021/12/11 11:40:47;;;;;;;8.35;2.00;;;;;;;;;;5137229;27;20379;-74
2021/12/11 11:43:15;;;;;;;9.25;1.70;;;;;;;;;;5136972;27;20484;-74
2021/12/11 11:45:42;;;;;;;9.98;1.95;;;;;;;;;;5137411;27;20076;-73
2021/12/11 11:48:11;;;;;;;9.05;1.30;;;;;;;;;;5137050;27;20479;-75
2021/12/11 11:50:44;;;;;;;7.38;1.63;;;;;;;;;;5136828;27;20020;-74
2021/12/11 11:53:12;;;;;;;8.60;1.85;;;;;;;;;;5137269;27;20024;-73
2021/12/11 11:55:47;;;;;;;8.77;1.80;;;;;;;;;;5137033;27;20046;-73
2021/12/11 11:58:14;;;;;;;9.13;1.70;;;;;;;;;;5137225;27;20406;-74
2021/12/11 12:00:45;;;;;;;7.35;1.50;;;;;;;;;;5137137;27;20479;-73
2021/12/11 12:03:13;;;;;;;10.23;1.77;;;;;;;;;;5135035;27;20043;-74
2021/12/11 12:05:42;;;;;;;6.07;1.50;;;;;;;;;;5135183;27;20076;-74
2021/12/11 12:08:10;;;;;;;10.70;1.60;;;;;;;;;;5136528;27;20031;-74
2021/12/11 12:10:37;;;;;;;7.13;2.05;;;;;;;;;;5136440;27;20031;-74
2021/12/11 12:13:07;;;;;;;9.07;1.75;;;;;;;;;;5136272;27;20012;-74
2021/12/11 12:15:41;;;;;;;7.80;1.70;;;;;;;;;;5135216;27;20023;-74
2021/12/11 12:18:09;;;;;;;11.18;1.80;;;;;;;;;;5134939;27;20054;-74
2021/12/11 12:20:40;;;;;;;9.00;1.77;;;;;;;;;;5135944;27;20022;-74
2021/12/11 12:23:08;;;;;;;7.55;1.65;;;;;;;;;;5136231;27;20023;-74
2021/12/11 12:25:36;;;;;;;8.45;2.45;;;;;;;;;;5136305;27;20091;-74
2021/12/11 12:28:04;;;;;;;6.70;1.83;;;;;;;;;;5135984;27;20030;-74
2021/12/11 12:30:33;;;;;;;8.57;1.40;;;;;;;;;;5136317;27;20076;-74
2021/12/11 12:33:01;;;;;;;8.75;2.28;;;;;;;;;;5135628;27;20064;-75
2021/12/11 12:35:29;;;;;;;6.55;1.50;;;;;;;;;;5135688;27;20019;-74
2021/12/11 12:37:57;;;;;;;5.32;1.45;;;;;;;;;;5134560;27;20023;-74
2021/12/11 12:40:29;;;;;;;11.63;2.40;;;;;;;;;;5134393;27;20033;-74
2021/12/11 12:43:09;;;;;;;6.93;1.75;;;;;;;;;;5134390;27;20391;-74
2021/12/11 12:45:39;;;;;;;5.72;1.90;;;;;;;;;;5135942;27;20046;-74
2021/12/11 12:48:08;;;;;;;6.60;1.60;;;;;;;;;;5135815;27;20359;-73
2021/12/11 12:50:41;;;;;;;7.32;1.92;;;;;;;;;;5135747;27;20030;-73
2021/12/11 12:53:08;;;;;;;8.38;1.80;;;;;;;;;;5134404;27;20024;-74
2021/12/11 12:55:41;;;;;;;11.68;1.77;;;;;;;;;;5135707;27;20037;-73
2021/12/11 12:58:11;;;;;;;9.13;1.80;;;;;;;;;;5135524;27;20030;-74
2021/12/11 13:00:44;;;;;;;6.72;1.88;;;;;;;;;;5135885;27;20056;-74
2021/12/11 13:03:17;;;;;;;11.05;2.40;;;;;;;;;;5133360;27;20479;-73
2021/12/11 13:05:46;;;;;;;6.88;1.45;;;;;;;;;;5134074;27;20027;-74
2021/12/11 13:08:20;;;;;;;7.10;1.27;;;;;;;;;;5133934;27;20028;-73
2021/12/11 13:10:49;;;;;;;9.02;2.03;;;;;;;;;;5135312;27;20019;-74
2021/12/11 13:13:18;;;;;;;12.33;2.30;;;;;;;;;;5135338;27;20467;-74
2021/12/11 13:15:50;;;;;;;8.43;1.55;;;;;;;;;;5134030;27;20023;-74
2021/12/11 13:18:20;;;;;;;7.47;1.55;;;;;;;;;;5135129;27;20026;-73
2021/12/11 13:20:50;;;;;;;8.23;1.58;;;;;;;;;;5135239;27;20019;-73
2021/12/11 13:23:17;;;;;;;7.05;2.03;;;;;;;;;;5135454;27;20094;-74
2021/12/11 13:25:53;;;;;;;9.18;1.85;;;;;;;;;;5133433;27;20035;-74
2021/12/11 13:28:23;;;;;;;6.75;1.55;;;;;;;;;;5134927;27;20026;-74
2021/12/11 13:30:53;;;;;;;5.90;1.42;;;;;;;;;;5134817;27;20024;-74
2021/12/11 13:33:22;;;;;;;7.47;1.87;;;;;;;;;;5135179;27;20015;-74
2021/12/11 13:35:52;;;;;;;11.00;2.53;;;;;;;;;;5133705;27;20019;-74
2021/12/11 13:38:21;;;;;;;7.33;1.87;;;;;;;;;;5133677;27;20034;-74
2021/12/11 13:40:50;;;;;;;9.43;1.60;;;;;;;;;;5134974;27;20255;-74
2021/12/11 13:43:18;;;;;;;11.23;2.45;;;;;;;;;;5134845;27;20019;-74
2021/12/11 13:45:47;;;;;;;8.35;2.25;;;;;;;;;;5134575;27;20051;-74
2021/12/11 13:48:15;;;;;;;12.70;1.90;;;;;;;;;;5133133;27;20436;-74
2021/12/11 13:50:45;;;;;;;12.55;2.22;;;;;;;;;;5134561;27;20327;-74
2021/12/11 13:53:12;;;;;;;7.93;1.65;;;;;;;;;;5134359;27;20447;-74
2021/12/11 13:55:40;;;;;;;8.85;1.95;;;;;;;;;;5134832;27;20098;-74
2021/12/11 13:58:08;;;;;;;9.50;1.67;;;;;;;;;;5133289;27;20029;-74
2021/12/11 14:00:38;;;;;;;8.95;1.52;;;;;;;;;;5134640;28;20019;-74
2021/12/11 14:03:05;;;;;;;11.30;1.80;;;;;;;;;;5134589;28;20043;-73
2021/12/11 14:05:33;;;;;;;6.50;1.10;;;;;;;;;;5134806;28;20388;-74
2021/12/11 14:08:06;;;;;;;7.57;1.70;;;;;;;;;;5134503;28;20425;-74
2021/12/11 14:10:35;;;;;;;4.57;1.40;;;;;;;;;;5133631;28;20498;-73
2021/12/11 14:13:04;;;;;;;7.68;1.75;;;;;;;;;;5133206;28;20030;-73
2021/12/11 14:15:31;;;;;;;7.22;1.63;;;;;;;;;;5136004;27;20015;-73
2021/12/11 14:17:58;;;;;;;10.90;1.70;;;;;;;;;;5137288;27;20381;-73
2021/12/11 14:20:29;;;;;;;7.35;2.03;;;;;;;;;;5138924;27;20071;-73
2021/12/11 14:22:57;;;;;;;7.72;1.67;;;;;;;;;;5138674;27;20019;-73
2021/12/11 14:25:25;;;;;;;7.68;2.05;;;;;;;;;;5137502;27;20049;-73
2021/12/11 14:27:52;;;;;;;8.15;1.70;;;;;;;;;;5138509;27;20023;-73
2021/12/11 14:30:20;;;;;;;7.70;1.65;;;;;;;;;;5138452;27;20033;-73
2021/12/11 14:32:53;;;;;;;8.32;1.48;;;;;;;;;;5137421;27;20029;-73
2021/12/11 14:35:22;;;;;;;8.10;1.52;;;;;;;;;;5136895;27;20047;-74
2021/12/11 14:37:51;;;;;;;7.38;1.48;;;15.90;99.90;;;;;;5138197;27;20075;-74
2021/12/11 14:40:21;;;;;;;8.38;1.52;;;16.00;99.90;;;;;;5137890;27;20023;-73
2021/12/11 14:42:49;;;;;;;8.50;1.35;;;15.90;99.90;;;;;;5137852;27;20019;-73
2021/12/11 14:45:24;;;;;;;7.88;1.67;;;15.90;99.90;;;;;;5137936;27;20106;-73
2021/12/11 14:47:53;;;;;;;8.43;1.42;;;15.90;99.90;;;;;;5137984;27;20026;-74
2021/12/11 14:50:30;;;;;;;6.78;1.75;;;15.90;99.90;;;;;;5138296;27;20019;-73
2021/12/11 14:53:00;;;;;;;9.75;1.40;;;15.90;99.90;;;;;;5138149;27;20425;-74
2021/12/11 14:55:48;;;;;;;8.23;2.13;;;15.90;99.90;;;;;;5137868;27;20020;-74
2021/12/11 14:58:16;;;;;;;6.63;1.38;;;15.90;99.90;;;;;;5138262;27;20418;-74
2021/12/11 15:00:47;;;;;;;7.45;1.40;;;15.90;99.90;;;;;;5137884;27;20023;-74